createdAt,value
2019-04-03T00:00:13.992Z,100180.59
2019-04-03T00:02:42.467Z,100177.61
2019-04-03T00:05:11.144Z,100176.47
2019-04-03T00:07:39.782Z,100176.47
2019-04-03T00:10:08.459Z,100172.97
2019-04-03T00:12:37.414Z,100176.37
2019-04-03T00:15:07.528Z,100187.58
2019-04-03T00:17:36.059Z,100187.06
2019-04-03T00:20:07.437Z,100185.61
2019-04-03T00:22:37.306Z,100191.45
2019-04-03T00:25:07.400Z,100186.78
2019-04-03T00:27:35.811Z,100188.12
2019-04-03T00:30:06.204Z,100189.55
2019-04-03T00:32:34.619Z,100188.28
2019-04-03T00:35:03.675Z,100196.55
2019-04-03T00:37:32.204Z,100192.23
2019-04-03T00:40:00.673Z,100187.46
2019-04-03T00:42:29.201Z,100189.05
2019-04-03T00:44:57.924Z,100185.01
2019-04-03T00:47:26.389Z,100189.09
2019-04-03T00:49:56.115Z,100181.70
2019-04-03T00:52:27.210Z,100184.98
2019-04-03T00:54:56.586Z,100181.16
2019-04-03T00:57:26.321Z,100185.17
2019-04-03T00:59:56.473Z,100190.20
2019-04-03T01:02:27.938Z,100180.44
2019-04-03T01:04:58.033Z,100181.98
2019-04-03T01:07:25.678Z,100186.37
2019-04-03T01:09:54.188Z,100180.21
2019-04-03T01:12:23.008Z,100180.34
2019-04-03T01:14:51.485Z,100171.81
2019-04-03T01:17:20.448Z,100176.84
2019-04-03T01:19:48.930Z,100172.19
2019-04-03T01:22:17.308Z,100172.83
2019-04-03T01:24:45.708Z,100171.40
2019-04-03T01:27:14.465Z,100165.13
2019-04-03T01:29:43.240Z,100155.15
2019-04-03T01:32:11.720Z,100161.63
2019-04-03T01:34:40.227Z,100161.19
2019-04-03T01:37:08.978Z,100150.70
2019-04-03T01:39:37.333Z,100151.23
2019-04-03T01:42:10.231Z,100145.23
2019-04-03T01:44:38.665Z,100141.48
2019-04-03T01:47:07.129Z,100133.81
2019-04-03T01:49:35.632Z,100131.75
2019-04-03T01:52:04.105Z,100133.46
2019-04-03T01:54:33.763Z,100134.52
2019-04-03T01:57:02.462Z,100129.17
2019-04-03T01:59:30.921Z,100120.74
2019-04-03T02:01:59.338Z,100115.34
2019-04-03T02:04:27.968Z,100101.25
2019-04-03T02:06:56.649Z,100096.92
2019-04-03T02:09:25.091Z,100090.16
2019-04-03T02:11:53.553Z,100093.40
2019-04-03T02:14:22.174Z,100108.48
2019-04-03T02:16:52.987Z,100109.37
2019-04-03T02:19:21.197Z,100093.47
2019-04-03T02:21:49.626Z,100097.38
2019-04-03T02:24:18.153Z,100110.64
2019-04-03T02:26:46.519Z,100110.70
2019-04-03T02:29:15.015Z,100104.02
2019-04-03T02:31:43.411Z,100105.36
2019-04-03T02:34:12.116Z,100107.94
2019-04-03T02:36:43.301Z,100105.77
2019-04-03T02:39:10.688Z,100103.10
2019-04-03T02:41:39.154Z,100105.45
2019-04-03T02:44:07.618Z,100096.81
2019-04-03T02:46:36.054Z,100098.66
2019-04-03T02:49:04.750Z,100097.13
2019-04-03T02:51:33.230Z,100101.33
2019-04-03T02:54:03.102Z,100095.16
2019-04-03T02:56:31.678Z,100091.28
2019-04-03T02:59:00.382Z,100086.45
2019-04-03T03:01:28.845Z,100090.67
2019-04-03T03:03:57.559Z,100093.76
2019-04-03T03:06:26.000Z,100092.17
2019-04-03T03:08:54.636Z,100092.77
2019-04-03T03:11:24.487Z,100095.63
2019-04-03T03:13:53.319Z,100092.96
2019-04-03T03:16:21.844Z,100093.05
2019-04-03T03:18:50.493Z,100091.78
2019-04-03T03:21:19.924Z,100100.81
2019-04-03T03:23:49.727Z,100092.89
2019-04-03T03:26:18.530Z,100095.38
2019-04-03T03:28:47.939Z,100093.20
2019-04-03T03:31:17.525Z,100100.90
2019-04-03T03:33:47.406Z,100104.08
2019-04-03T03:36:21.772Z,100101.59
2019-04-03T03:38:46.308Z,100100.67
2019-04-03T03:41:15.302Z,100091.33
2019-04-03T03:43:44.320Z,100089.36
2019-04-03T03:46:13.407Z,100091.06
2019-04-03T03:48:44.637Z,100092.81
2019-04-03T03:51:13.498Z,100091.67
2019-04-03T03:53:44.541Z,100087.39
2019-04-03T03:56:12.365Z,100081.73
2019-04-03T03:58:44.699Z,100082.23
2019-04-03T04:01:11.420Z,100083.85
2019-04-03T04:03:41.727Z,100081.05
2019-04-03T04:06:10.634Z,100085.05
2019-04-03T04:08:42.715Z,100088.64
2019-04-03T04:11:09.968Z,100085.23
2019-04-03T04:13:38.455Z,100088.69
2019-04-03T04:16:07.200Z,100086.25
2019-04-03T04:18:36.266Z,100090.94
2019-04-03T04:21:09.406Z,100089.10
2019-04-03T04:23:36.412Z,100093.11
2019-04-03T04:26:04.849Z,100097.11
2019-04-03T04:28:33.573Z,100093.11
2019-04-03T04:31:02.075Z,100089.74
2019-04-03T04:33:30.814Z,100079.45
2019-04-03T04:35:59.279Z,100080.27
2019-04-03T04:38:27.693Z,100077.80
2019-04-03T04:40:56.155Z,100078.43
2019-04-03T04:43:24.552Z,100068.13
2019-04-03T04:45:53.087Z,100066.11
2019-04-03T04:48:21.876Z,100062.80
2019-04-03T04:50:50.371Z,100073.16
2019-04-03T04:53:18.912Z,100070.57
2019-04-03T04:55:47.495Z,100072.23
2019-04-03T04:58:16.036Z,100065.88
2019-04-03T05:00:47.041Z,100069.37
2019-04-03T05:03:15.020Z,100075.81
2019-04-03T05:05:43.572Z,100078.20
2019-04-03T05:08:12.031Z,100080.09
2019-04-03T05:10:40.839Z,100074.25
2019-04-03T05:13:09.386Z,100077.75
2019-04-03T05:15:37.858Z,100075.91
2019-04-03T05:18:06.427Z,100077.56
2019-04-03T05:20:35.199Z,100074.57
2019-04-03T05:23:03.807Z,100072.86
2019-04-03T05:25:32.337Z,100068.03
2019-04-03T05:28:00.947Z,100068.77
2019-04-03T05:30:30.649Z,100071.06
2019-04-03T05:33:00.025Z,100070.55
2019-04-03T05:35:28.942Z,100065.00
2019-04-03T05:37:57.510Z,100066.97
2019-04-03T05:40:26.715Z,100066.97
2019-04-03T05:42:56.176Z,100069.17
2019-04-03T05:45:24.608Z,100067.84
2019-04-03T05:47:53.219Z,100063.84
2019-04-03T05:50:21.749Z,100060.28
2019-04-03T05:52:50.528Z,100066.45
2019-04-03T05:55:19.001Z,100067.18
2019-04-03T05:57:47.469Z,100059.36
2019-04-03T06:00:16.367Z,100065.98
2019-04-03T06:02:44.808Z,100067.66
2019-04-03T06:05:13.594Z,100077.73
2019-04-03T06:07:42.304Z,100082.57
2019-04-03T06:10:10.839Z,100075.61
2019-04-03T06:12:39.503Z,100076.72
2019-04-03T06:15:09.800Z,100075.55
2019-04-03T06:17:41.818Z,100077.30
2019-04-03T06:20:12.038Z,100073.31
2019-04-03T06:22:40.465Z,100068.77
2019-04-03T06:25:13.432Z,100070.14
2019-04-03T06:27:42.163Z,100063.81
2019-04-03T06:30:09.844Z,100068.33
2019-04-03T06:32:38.372Z,100067.44
2019-04-03T06:35:06.848Z,100067.77
2019-04-03T06:37:35.426Z,100067.77
2019-04-03T06:40:06.886Z,100055.81
2019-04-03T06:42:35.447Z,100052.95
2019-04-03T06:45:05.405Z,100055.73
2019-04-03T06:47:34.101Z,100052.86
2019-04-03T06:50:02.613Z,100058.52
2019-04-03T06:52:31.172Z,100058.92
2019-04-03T06:54:59.612Z,100061.91
2019-04-03T06:57:28.335Z,100056.05
2019-04-03T06:59:56.869Z,100055.84
2019-04-03T07:02:27.717Z,100054.50
2019-04-03T07:04:55.627Z,100061.16
2019-04-03T07:07:33.556Z,100063.47
2019-04-03T07:09:54.670Z,100064.02
2019-04-03T07:12:23.352Z,100063.51
2019-04-03T07:14:51.945Z,100061.51
2019-04-03T07:17:20.622Z,100070.86
2019-04-03T07:19:49.191Z,100073.02
2019-04-03T07:22:17.990Z,100071.82
2019-04-03T07:24:46.416Z,100064.50
2019-04-03T07:27:15.505Z,100050.83
2019-04-03T07:29:44.011Z,100061.23
2019-04-03T07:32:12.585Z,100057.34
2019-04-03T07:34:41.372Z,100059.95
2019-04-03T07:37:09.920Z,100057.80
2019-04-03T07:39:38.424Z,100058.45
2019-04-03T07:42:07.014Z,100065.84
2019-04-03T07:44:35.545Z,100057.94
2019-04-03T07:47:05.328Z,100059.12
2019-04-03T07:49:33.817Z,100059.65
2019-04-03T07:52:02.606Z,100067.67
2019-04-03T07:54:31.099Z,100062.84
2019-04-03T07:56:59.693Z,100057.48
2019-04-03T07:59:28.359Z,100058.23
2019-04-03T08:01:56.929Z,100059.14
2019-04-03T08:04:25.915Z,100053.78
2019-04-03T08:06:54.670Z,100059.59
2019-04-03T08:09:23.552Z,100064.65
2019-04-03T08:11:52.211Z,100050.69
2019-04-03T08:14:21.250Z,100056.15
2019-04-03T08:16:49.889Z,100056.06
2019-04-03T08:19:18.342Z,100061.21
2019-04-03T08:21:47.085Z,100062.86
2019-04-03T08:24:15.702Z,100054.19
2019-04-03T08:26:44.901Z,100055.30
2019-04-03T08:29:13.475Z,100052.95
2019-04-03T08:31:43.637Z,100046.13
2019-04-03T08:34:16.730Z,100044.89
2019-04-03T08:36:43.100Z,100047.09
2019-04-03T08:39:11.620Z,100041.06
2019-04-03T08:41:40.100Z,100037.15
2019-04-03T08:44:09.239Z,100033.11
2019-04-03T08:46:38.123Z,100035.42
2019-04-03T08:49:06.845Z,100029.28
2019-04-03T08:51:35.468Z,100030.04
2019-04-03T08:54:04.257Z,100026.72
2019-04-03T08:56:32.999Z,100027.77
2019-04-03T08:59:01.560Z,100022.07
2019-04-03T09:01:30.243Z,100020.56
2019-04-03T09:03:59.184Z,100016.12
2019-04-03T09:06:27.705Z,100015.27
2019-04-03T09:08:58.193Z,100019.98
2019-04-03T09:11:26.652Z,100019.33
2019-04-03T09:13:55.812Z,100024.14
2019-04-03T09:16:24.808Z,100020.34
2019-04-03T09:18:53.545Z,100027.55
2019-04-03T09:21:22.115Z,100025.34
2019-04-03T09:23:50.661Z,100022.92
2019-04-03T09:26:19.192Z,100014.58
2019-04-03T09:28:47.728Z,100014.92
2019-04-03T09:31:16.834Z,100003.41
2019-04-03T09:33:46.559Z,100000.14
2019-04-03T09:36:15.119Z,99996.63
2019-04-03T09:38:43.810Z,99994.64
2019-04-03T09:41:13.954Z,99986.20
2019-04-03T09:43:42.528Z,99986.28
2019-04-03T09:46:11.350Z,99976.16
2019-04-03T09:48:40.023Z,99977.07
2019-04-03T09:51:09.744Z,99978.37
2019-04-03T09:53:38.315Z,99980.31
2019-04-03T09:56:07.999Z,99984.12
2019-04-03T09:58:37.034Z,99983.92
2019-04-03T10:01:06.172Z,99972.77
2019-04-03T10:03:34.887Z,99980.44
2019-04-03T10:06:03.871Z,99975.98
2019-04-03T10:08:32.315Z,99975.34
2019-04-03T10:11:00.903Z,99969.06
2019-04-03T10:13:29.501Z,99964.38
2019-04-03T10:15:58.268Z,99958.37
2019-04-03T10:18:27.174Z,99956.92
2019-04-03T10:20:55.735Z,99958.98
2019-04-03T10:23:24.518Z,99946.18
2019-04-03T10:25:54.699Z,99956.03
2019-04-03T10:28:23.518Z,99951.66
2019-04-03T10:30:53.539Z,99955.72
2019-04-03T10:33:22.312Z,99951.08
2019-04-03T10:35:51.484Z,99939.08
2019-04-03T10:38:19.924Z,99935.66
2019-04-03T10:40:48.705Z,99937.44
2019-04-03T10:43:17.753Z,99933.37
2019-04-03T10:45:46.355Z,99930.70
2019-04-03T10:48:14.858Z,99931.52
2019-04-03T10:50:43.679Z,99923.73
2019-04-03T10:53:12.222Z,99922.07
2019-04-03T10:55:40.741Z,99916.81
2019-04-03T10:58:09.275Z,99921.00
2019-04-03T11:00:38.250Z,99913.95
2019-04-03T11:03:06.904Z,99914.83
2019-04-03T11:05:35.434Z,99905.45
2019-04-03T11:08:04.008Z,99906.27
2019-04-03T11:10:32.498Z,99904.13
2019-04-03T11:13:03.250Z,99901.66
2019-04-03T11:15:31.383Z,99896.61
2019-04-03T11:18:00.508Z,99894.58
2019-04-03T11:20:29.382Z,99887.54
2019-04-03T11:23:05.947Z,99877.77
2019-04-03T11:25:28.428Z,99870.17
2019-04-03T11:27:57.282Z,99858.47
2019-04-03T11:30:26.416Z,99854.35
2019-04-03T11:32:54.853Z,99849.00
2019-04-03T11:35:23.319Z,99850.25
2019-04-03T11:37:51.816Z,99844.55
2019-04-03T11:40:20.566Z,99840.77
2019-04-03T11:42:49.176Z,99831.20
2019-04-03T11:45:18.165Z,99829.67
2019-04-03T11:47:47.230Z,99831.19
2019-04-03T11:50:18.134Z,99826.57
2019-04-03T11:52:46.777Z,99819.89
2019-04-03T11:55:15.598Z,99812.74
2019-04-03T11:57:44.149Z,99814.87
2019-04-03T12:00:14.819Z,99812.86
2019-04-03T12:02:44.351Z,99808.62
2019-04-03T12:05:16.235Z,99804.30
2019-04-03T12:07:43.782Z,99803.17
2019-04-03T12:10:12.540Z,99806.89
2019-04-03T12:12:42.117Z,99797.88
2019-04-03T12:15:11.882Z,99794.91
2019-04-03T12:17:40.997Z,99791.27
2019-04-03T12:20:10.010Z,99790.05
2019-04-03T12:22:38.972Z,99792.70
2019-04-03T12:25:07.663Z,99797.83
2019-04-03T12:27:36.776Z,99794.63
2019-04-03T12:30:09.346Z,99799.20
2019-04-03T12:32:43.319Z,99793.19
2019-04-03T12:35:09.812Z,99790.00
2019-04-03T12:37:38.451Z,99788.20
2019-04-03T12:40:07.708Z,99783.89
2019-04-03T12:42:36.200Z,99786.10
2019-04-03T12:45:07.469Z,99782.93
2019-04-03T12:47:36.207Z,99787.56
2019-04-03T12:50:07.526Z,99788.18
2019-04-03T12:52:36.611Z,99786.02
2019-04-03T12:55:08.171Z,99780.50
2019-04-03T12:57:39.240Z,99783.74
2019-04-03T13:00:11.487Z,99787.63
2019-04-03T13:02:40.081Z,99791.19
2019-04-03T13:05:09.878Z,99786.30
2019-04-03T13:07:38.571Z,99793.55
2019-04-03T13:10:08.791Z,99792.17
2019-04-03T13:12:38.005Z,99791.61
2019-04-03T13:15:09.294Z,99787.55
2019-04-03T13:17:42.552Z,99781.30
2019-04-03T13:20:10.563Z,99790.75
2019-04-03T13:22:40.004Z,99789.69
2019-04-03T13:25:10.029Z,99790.42
2019-04-03T13:27:38.571Z,99780.72
2019-04-03T13:30:11.481Z,99785.86
2019-04-03T13:32:38.318Z,99784.92
2019-04-03T13:35:07.822Z,99786.09
2019-04-03T13:37:36.348Z,99781.74
2019-04-03T13:40:07.070Z,99777.80
2019-04-03T13:42:36.595Z,99778.68
2019-04-03T13:45:09.344Z,99775.28
2019-04-03T13:47:41.525Z,99777.97
2019-04-03T13:50:09.684Z,99774.18
2019-04-03T13:52:42.345Z,99773.22
2019-04-03T13:55:08.841Z,99771.96
2019-04-03T13:57:37.626Z,99774.17
2019-04-03T14:00:19.892Z,99780.67
2019-04-03T14:02:40.410Z,99767.49
2019-04-03T14:05:09.777Z,99763.75
2019-04-03T14:07:41.514Z,99757.52
2019-04-03T14:10:11.304Z,99755.59
2019-04-03T14:12:44.008Z,99754.45
2019-04-03T14:15:10.748Z,99747.61
2019-04-03T14:17:39.803Z,99747.58
2019-04-03T14:20:09.060Z,99756.06
2019-04-03T14:22:37.787Z,99753.99
2019-04-03T14:25:17.908Z,99754.79
2019-04-03T14:27:37.678Z,99749.37
2019-04-03T14:30:11.616Z,99747.75
2019-04-03T14:32:38.376Z,99734.87
2019-04-03T14:35:33.706Z,99733.83
2019-04-03T14:37:37.910Z,99726.44
2019-04-03T14:40:11.520Z,99726.75
2019-04-03T14:42:38.610Z,99722.53
2019-04-03T14:45:08.042Z,99720.43
2019-04-03T14:47:36.924Z,99715.97
2019-04-03T14:50:07.158Z,99709.67
2019-04-03T14:52:36.340Z,99716.79
2019-04-03T14:55:16.459Z,99720.41
2019-04-03T14:57:37.296Z,99718.95
2019-04-03T15:00:23.922Z,99714.55
2019-04-03T15:02:40.102Z,99720.08
2019-04-03T15:05:09.206Z,99715.12
2019-04-03T15:07:37.546Z,99715.07
2019-04-03T15:10:07.358Z,99709.64
2019-04-03T15:12:38.622Z,99700.53
2019-04-03T15:15:09.805Z,99695.31
2019-04-03T15:17:38.889Z,99693.44
2019-04-03T15:20:09.372Z,99697.63
2019-04-03T15:22:38.137Z,99693.80
2019-04-03T15:25:07.558Z,99696.59
2019-04-03T15:27:36.044Z,99698.44
2019-04-03T15:30:09.890Z,99701.90
2019-04-03T15:32:37.989Z,99695.97
2019-04-03T15:35:06.778Z,99695.97
2019-04-03T15:37:35.261Z,99691.86
2019-04-03T15:40:04.782Z,99686.43
2019-04-03T15:42:33.568Z,99691.59
2019-04-03T15:45:02.479Z,99685.08
2019-04-03T15:47:37.077Z,99676.16
2019-04-03T15:50:01.769Z,99677.77
2019-04-03T15:52:30.444Z,99676.38
2019-04-03T15:54:58.970Z,99675.77
2019-04-03T15:57:27.653Z,99672.70
2019-04-03T15:59:56.463Z,99669.98
2019-04-03T16:02:24.971Z,99668.07
2019-04-03T16:04:53.745Z,99666.73
2019-04-03T16:07:22.717Z,99675.63
2019-04-03T16:09:51.990Z,99662.30
2019-04-03T16:12:25.035Z,99663.36
2019-04-03T16:14:54.081Z,99659.58
2019-04-03T16:17:22.781Z,99653.84
2019-04-03T16:19:52.470Z,99653.01
2019-04-03T16:22:21.690Z,99659.78
2019-04-03T16:24:53.193Z,99649.67
2019-04-03T16:27:21.124Z,99651.02
2019-04-03T16:29:50.703Z,99644.83
2019-04-03T16:32:19.515Z,99651.59
2019-04-03T16:34:48.319Z,99645.90
2019-04-03T16:37:16.898Z,99642.91
2019-04-03T16:39:45.447Z,99642.08
2019-04-03T16:42:15.743Z,99632.33
2019-04-03T16:44:44.563Z,99627.74
2019-04-03T16:47:14.441Z,99621.80
2019-04-03T16:49:43.244Z,99620.92
2019-04-03T16:52:11.778Z,99620.08
2019-04-03T16:54:43.449Z,99616.22
2019-04-03T16:57:10.572Z,99610.52
2019-04-03T16:59:39.340Z,99612.63
2019-04-03T17:02:07.948Z,99614.18
2019-04-03T17:04:37.496Z,99611.45
2019-04-03T17:07:06.318Z,99605.77
2019-04-03T17:09:37.608Z,99613.62
2019-04-03T17:12:05.343Z,99613.81
2019-04-03T17:14:34.201Z,99618.09
2019-04-03T17:17:03.515Z,99611.02
2019-04-03T17:19:32.107Z,99613.63
2019-04-03T17:22:00.951Z,99607.91
2019-04-03T17:24:40.928Z,99609.22
2019-04-03T17:27:00.438Z,99613.20
2019-04-03T17:29:29.230Z,99613.42
2019-04-03T17:31:58.841Z,99612.34
2019-04-03T17:34:27.945Z,99604.46
2019-04-03T17:36:56.785Z,99607.94
2019-04-03T17:39:25.367Z,99617.39
2019-04-03T17:41:53.852Z,99613.55
2019-04-03T17:44:22.361Z,99615.64
2019-04-03T17:46:50.759Z,99614.54
2019-04-03T17:49:19.211Z,99611.27
2019-04-03T17:51:47.688Z,99614.98
2019-04-03T17:54:16.318Z,99613.06
2019-04-03T17:56:45.117Z,99605.78
2019-04-03T17:59:13.646Z,99606.60
2019-04-03T18:01:42.102Z,99609.27
2019-04-03T18:04:10.634Z,99608.45
2019-04-03T18:06:39.021Z,99603.29
2019-04-03T18:09:08.781Z,99602.15
2019-04-03T18:11:37.400Z,99602.42
2019-04-03T18:14:06.057Z,99602.67
2019-04-03T18:16:34.795Z,99605.05
2019-04-03T18:19:04.887Z,99601.19
2019-04-03T18:21:33.402Z,99596.86
2019-04-03T18:24:01.950Z,99601.39
2019-04-03T18:26:31.126Z,99594.94
2019-04-03T18:29:00.291Z,99595.42
2019-04-03T18:31:28.866Z,99592.94
2019-04-03T18:33:57.467Z,99595.06
2019-04-03T18:36:31.340Z,99593.75
2019-04-03T18:38:59.906Z,99591.01
2019-04-03T18:41:28.462Z,99593.13
2019-04-03T18:43:56.927Z,99593.08
2019-04-03T18:46:32.357Z,99594.66
2019-04-03T18:49:00.982Z,99584.70
2019-04-03T18:51:26.752Z,99584.90
2019-04-03T18:53:55.506Z,99581.67
2019-04-03T18:56:24.047Z,99583.80
2019-04-03T18:58:53.099Z,99579.20
2019-04-03T19:01:22.777Z,99580.27
2019-04-03T19:03:51.582Z,99580.22
2019-04-03T19:06:20.379Z,99574.16
2019-04-03T19:08:50.119Z,99569.05
2019-04-03T19:11:20.005Z,99566.59
2019-04-03T19:13:49.683Z,99563.27
2019-04-03T19:16:28.946Z,99566.45
2019-04-03T19:18:48.576Z,99562.88
2019-04-03T19:21:24.204Z,99561.71
2019-04-03T19:23:50.030Z,99565.23
2019-04-03T19:26:18.209Z,99559.30
2019-04-03T19:28:46.793Z,99557.91
2019-04-03T19:31:15.739Z,99555.45
2019-04-03T19:33:45.392Z,99549.78
2019-04-03T19:36:14.187Z,99555.16
2019-04-03T19:38:42.945Z,99555.33
2019-04-03T19:41:11.855Z,99551.73
2019-04-03T19:43:40.853Z,99551.73
2019-04-03T19:46:09.321Z,99551.09
2019-04-03T19:48:37.959Z,99545.22
2019-04-03T19:51:06.844Z,99544.63
2019-04-03T19:53:35.929Z,99553.23
2019-04-03T19:56:04.610Z,99550.72
2019-04-03T19:58:33.134Z,99546.81
2019-04-03T20:01:03.532Z,99542.20
2019-04-03T20:03:31.705Z,99541.14
2019-04-03T20:06:00.194Z,99538.88
2019-04-03T20:08:29.954Z,99536.16
2019-04-03T20:11:00.195Z,99540.16
2019-04-03T20:13:28.855Z,99536.12
2019-04-03T20:15:57.434Z,99536.64
2019-04-03T20:18:26.647Z,99526.11
2019-04-03T20:20:55.104Z,99533.08
2019-04-03T20:23:23.562Z,99533.06
2019-04-03T20:25:52.193Z,99528.92
2019-04-03T20:28:23.386Z,99529.72
2019-04-03T20:30:50.790Z,99541.55
2019-04-03T20:33:19.270Z,99539.50
2019-04-03T20:35:49.474Z,99539.47
2019-04-03T20:38:17.893Z,99543.52
2019-04-03T20:40:46.416Z,99536.67
2019-04-03T20:43:14.953Z,99543.69
2019-04-03T20:45:43.483Z,99541.00
2019-04-03T20:48:12.083Z,99547.15
2019-04-03T20:50:40.727Z,99541.16
2019-04-03T20:53:09.132Z,99548.47
2019-04-03T20:55:37.732Z,99545.88
2019-04-03T20:58:06.774Z,99547.97
2019-04-03T21:00:35.385Z,99544.70
2019-04-03T21:03:03.826Z,99546.22
2019-04-03T21:05:32.275Z,99555.55
2019-04-03T21:08:00.741Z,99557.77
2019-04-03T21:10:31.183Z,99559.30
2019-04-03T21:12:59.774Z,99560.05
2019-04-03T21:15:28.293Z,99566.52
2019-04-03T21:17:56.957Z,99564.83
2019-04-03T21:20:25.378Z,99567.20
2019-04-03T21:22:53.813Z,99564.97
2019-04-03T21:25:22.299Z,99563.42
2019-04-03T21:27:50.689Z,99561.76
2019-04-03T21:30:19.634Z,99556.44
2019-04-03T21:32:48.153Z,99556.03
2019-04-03T21:35:16.612Z,99556.82
2019-04-03T21:37:45.014Z,99552.52
2019-04-03T21:40:15.297Z,99546.35
2019-04-03T21:42:43.857Z,99559.22
2019-04-03T21:45:12.673Z,99549.22
2019-04-03T21:47:42.765Z,99554.80
2019-04-03T21:50:11.561Z,99555.27
2019-04-03T21:52:40.355Z,99556.91
2019-04-03T21:55:08.898Z,99554.68
2019-04-03T21:57:38.327Z,99556.55
2019-04-03T22:00:08.959Z,99553.73
2019-04-03T22:02:37.569Z,99554.77
2019-04-03T22:05:07.602Z,99550.14
2019-04-03T22:07:36.073Z,99551.20
2019-04-03T22:10:08.565Z,99554.94
2019-04-03T22:12:36.706Z,99556.48
2019-04-03T22:15:07.132Z,99551.92
2019-04-03T22:17:35.586Z,99560.38
2019-04-03T22:20:04.993Z,99548.78
2019-04-03T22:22:33.846Z,99563.50
2019-04-03T22:25:03.102Z,99554.45
2019-04-03T22:27:31.603Z,99560.59
2019-04-03T22:29:59.997Z,99549.61
2019-04-03T22:32:28.441Z,99542.05
2019-04-03T22:34:57.005Z,99546.24
2019-04-03T22:37:25.663Z,99547.78
2019-04-03T22:39:54.078Z,99546.24
2019-04-03T22:42:22.554Z,99545.13
2019-04-03T22:44:51.270Z,99539.95
2019-04-03T22:47:19.889Z,99541.36
2019-04-03T22:49:48.575Z,99542.96
2019-04-03T22:52:17.090Z,99532.94
2019-04-03T22:54:45.887Z,99534.48
2019-04-03T22:57:14.259Z,99532.02
2019-04-03T22:59:43.038Z,99536.28
2019-04-03T23:02:11.489Z,99528.45
2019-04-03T23:04:41.930Z,99523.27
2019-04-03T23:07:10.290Z,99525.83
2019-04-03T23:09:39.097Z,99525.20
2019-04-03T23:12:07.548Z,99528.64
2019-04-03T23:14:38.254Z,99526.48
2019-04-03T23:17:06.744Z,99531.45
2019-04-03T23:19:35.679Z,99522.58
2019-04-03T23:22:04.284Z,99523.10
2019-04-03T23:24:32.838Z,99521.36
2019-04-03T23:27:02.672Z,99518.09
2019-04-03T23:29:31.742Z,99515.59
2019-04-03T23:32:00.640Z,99516.74
2019-04-03T23:34:29.190Z,99509.77
2019-04-03T23:36:57.722Z,99512.91
2019-04-03T23:39:27.924Z,99511.49
2019-04-03T23:41:56.880Z,99509.07
2019-04-03T23:44:25.317Z,99506.09
2019-04-03T23:46:53.865Z,99509.82
2019-04-03T23:49:22.426Z,99503.56
2019-04-03T23:51:50.985Z,99503.69
2019-04-03T23:54:19.564Z,99501.23
2019-04-03T23:56:48.111Z,99498.38
2019-04-03T23:59:16.626Z,99498.50
